Summit, New Jersey
Current Conditions -  °F | °C
As of 10:15 PM on Thursday 27 Nov 2014 (Local Time) from KMMU Reporting Station
NA  
Wind Chill:   Ceiling: NA
Heat Index:   Visibility: 10mi
Dew Point: -4°   Wind: 3mph
Humidity: 70%   Direction: 310°NW
Pressure: 30.08"   Gusts: NA
Location:  40.72°N, 74.36°W
Report Text: KMMU 280315Z AUTO 31003KT 10SM 01/M04 A3008 RMK AO2
Loading
Personal Weather Stations






























Interactive Weather Map New forecast layout! Learn more

10-Day Weather Forecast

Advertisements
Track Severe Weather on mobile